Time;durP1;ratioP1;P1;durP2;ratioP2;P2;SDS_P1;SDS_P2;PMS_P1;PMS_P2;Temp;Humidity;BMP_temperature;BMP_pressure;BME280_temperature;BME280_humidity;BME280_pressure;Samples;Min_cycle;Max_cycle;Signal;HPM_P1;HPM_P2
2023/06/09 00:01:53;;;;;;;15.68;6.53;;;;;;;;;;5105085;28;20397;-76
2023/06/09 00:04:26;;;;;;;19.38;6.38;;;;;;;;;;5105707;28;20521;-76
2023/06/09 00:06:57;;;;;;;21.00;7.18;;;;;;;;;;5105594;28;20054;-75
2023/06/09 00:09:27;;;;;;;20.85;7.15;;;;;;;;;;5106459;28;20058;-75
2023/06/09 00:11:59;;;;;;;12.80;6.13;;;;;;;;;;5105953;28;20035;-75
2023/06/09 00:14:29;;;;;;;18.88;6.35;;;;;;;;;;5105588;28;20047;-75
2023/06/09 00:16:59;;;;;;;16.13;6.20;;;;;;;;;;5105374;28;20051;-75
2023/06/09 00:19:32;;;;;;;13.15;6.13;;;;;;;;;;5105833;28;20043;-75
2023/06/09 00:22:05;;;;;;;14.75;5.82;;;;;;;;;;5105772;28;20433;-74
2023/06/09 00:24:35;;;;;;;11.50;5.13;;;;;;;;;;5104916;28;20058;-75
2023/06/09 00:27:06;;;;;;;11.57;5.35;;;;;;;;;;5105132;28;20051;-76
2023/06/09 00:29:36;;;;;;;12.25;5.50;;;;;;;;;;5105227;28;20050;-74
2023/06/09 00:32:11;;;;;;;11.82;5.50;;;;;;;;;;5105833;28;20056;-76
2023/06/09 00:34:43;;;;;;;10.75;5.28;;;;;;;;;;5104975;28;20051;-74
2023/06/09 00:37:14;;;;;;;10.95;5.28;;;;;;;;;;5105094;28;20043;-75
2023/06/09 00:39:44;;;;;;;12.63;5.43;;;;;;;;;;5105207;28;20055;-75
2023/06/09 00:42:15;;;;;;;11.65;5.53;;;;;;;;;;5086555;28;20059;-80
2023/06/09 00:44:45;;;;;;;8.93;5.57;;;;;;;;;;5086796;28;20054;-74
2023/06/09 00:47:16;;;;;;;10.13;5.53;;;;;;;;;;5070680;28;20051;-75
2023/06/09 00:49:48;;;;;;;11.05;5.68;;;;;;;;;;5086746;28;20047;-75
2023/06/09 00:52:19;;;;;;;9.32;5.47;;;;;;;;;;5105175;28;20051;-74
2023/06/09 00:54:52;;;;;;;10.55;5.57;;;;;;;;;;5105505;28;20044;-75
2023/06/09 00:57:23;;;;;;;8.88;5.57;;;;;;;;;;5105371;28;20055;-75
2023/06/09 00:59:55;;;;;;;8.05;5.45;;;;;;;;;;5086562;28;20056;-75
2023/06/09 01:02:27;;;;;;;9.30;5.03;;;;;;;;;;5086417;28;20063;-74
2023/06/09 01:04:57;;;;;;;7.80;5.13;;;;;;;;;;5086254;28;20074;-76
2023/06/09 01:07:55;;;;;;;8.35;5.18;;;;;;;;;;5105654;28;20073;-74
2023/06/09 01:10:44;;;;;;;7.32;5.40;;;;;;;;;;5102757;28;20047;-75
2023/06/09 01:13:19;;;;;;;7.38;4.93;;;;;;;;;;5103164;28;20039;-78
2023/06/09 01:16:25;;;;;;;8.52;5.00;;;;;;;;;;5104243;28;20616;-76
2023/06/09 01:18:57;;;;;;;7.75;4.55;;;;;;;;;;5062145;28;20059;-76
2023/06/09 01:21:45;;;;;;;10.35;5.10;;;;;;;;;;5087087;28;20541;-76
2023/06/09 01:24:35;;;;;;;7.20;4.70;;;;;;;;;;5107080;28;20406;-74
2023/06/09 01:27:07;;;;;;;11.98;4.75;;;;;;;;;;5108385;28;20058;-76
2023/06/09 01:29:40;;;;;;;16.05;5.03;;;;;;;;;;5109365;28;20051;-76
2023/06/09 01:32:16;;;;;;;10.68;5.18;;;;;;;;;;5090511;28;20517;-75
2023/06/09 01:34:49;;;;;;;10.32;5.03;;;;;;;;;;5109489;28;20410;-76
2023/06/09 01:37:20;;;;;;;9.18;4.82;;;;;;;;;;5109089;28;20414;-75
2023/06/09 01:39:51;;;;;;;9.90;5.18;;;;;;;;;;5108556;28;20074;-75
2023/06/09 01:42:23;;;;;;;8.80;5.20;;;;;;;;;;5073599;28;20059;-75
2023/06/09 01:44:53;;;;;;;7.65;5.10;;;;;;;;;;5089688;28;20055;-75
2023/06/09 01:47:24;;;;;;;9.30;5.20;;;;;;;;;;5108973;28;20058;-76
2023/06/09 01:50:13;;;;;;;10.00;5.07;;;;;;;;;;5108653;28;20047;-75
2023/06/09 01:52:55;;;;;;;8.18;5.68;;;;;;;;;;5108778;28;20494;-75
2023/06/09 01:55:35;;;;;;;9.48;5.88;;;;;;;;;;5108635;28;20501;-75
2023/06/09 01:58:22;;;;;;;11.27;5.28;;;;;;;;;;5089694;28;20402;-75
2023/06/09 02:00:54;;;;;;;10.50;5.57;;;;;;;;;;5089835;28;20059;-75
2023/06/09 02:03:27;;;;;;;8.35;5.32;;;;;;;;;;5108667;28;20315;-75
2023/06/09 02:06:00;;;;;;;12.00;5.22;;;;;;;;;;5108606;28;20044;-75
2023/06/09 02:08:30;;;;;;;11.02;6.32;;;;;;;;;;5089604;28;20051;-75
2023/06/09 02:11:02;;;;;;;10.60;5.18;;;;;;;;;;5089299;28;20055;-76
2023/06/09 02:13:32;;;;;;;11.27;5.18;;;;;;;;;;5089458;28;20047;-76
2023/06/09 02:16:07;;;;;;;8.50;5.28;;;;;;;;;;5089123;28;20055;-76
2023/06/09 02:18:37;;;;;;;8.30;5.50;;;;;;;;;;5089237;28;20039;-76
2023/06/09 02:21:08;;;;;;;11.60;6.22;;;;;;;;;;5108716;28;20035;-75
2023/06/09 02:23:39;;;;;;;12.18;5.82;;;;;;;;;;5107913;28;20040;-75
2023/06/09 02:26:09;;;;;;;9.48;5.72;;;;;;;;;;5088406;28;20047;-76
2023/06/09 02:28:41;;;;;;;9.40;5.57;;;;;;;;;;5088775;28;20051;-75
2023/06/09 02:31:11;;;;;;;9.80;5.75;;;;;;;;;;5107679;28;20039;-76
2023/06/09 02:33:43;;;;;;;11.48;5.47;;;;;;;;;;5088777;28;20129;-75
2023/06/09 02:36:14;;;;;;;12.63;5.97;;;;;;;;;;5089251;28;20052;-75
2023/06/09 02:38:43;;;;;;;9.82;5.53;;;;;;;;;;5088835;28;20050;-75
2023/06/09 02:41:14;;;;;;;8.00;5.20;;;;;;;;;;5088569;28;20048;-75
2023/06/09 02:43:44;;;;;;;10.13;5.63;;;;;;;;;;5089751;28;20387;-75
2023/06/09 02:46:17;;;;;;;10.82;5.32;;;;;;;;;;5107559;28;20059;-74
2023/06/09 02:48:49;;;;;;;9.63;5.88;;;;;;;;;;5107799;28;20517;-76
2023/06/09 02:51:21;;;;;;;11.70;5.60;;;;;;;;;;5088439;28;20413;-74
2023/06/09 02:53:53;;;;;;;9.73;5.90;;;;;;;;;;5088795;28;20051;-75
2023/06/09 02:56:23;;;;;;;7.60;5.00;;;;;;;;;;5088306;28;20453;-74
2023/06/09 02:58:57;;;;;;;8.57;5.05;;;;;;;;;;5088476;28;20071;-76
2023/06/09 03:01:34;;;;;;;7.15;5.03;;;;;;;;;;5088040;28;20052;-75
2023/06/09 03:04:07;;;;;;;10.23;5.15;;;;;;;;;;5088004;28;20059;-75
2023/06/09 03:06:43;;;;;;;10.88;5.60;;;;;;;;;;5088486;28;20055;-75
2023/06/09 03:09:18;;;;;;;9.90;5.05;;;;;;;;;;5088677;28;20070;-75
2023/06/09 03:11:54;;;;;;;7.07;4.82;;;;;;;;;;5087978;28;20055;-75
2023/06/09 03:14:26;;;;;;;5.65;4.30;;;;;;;;;;5088630;28;20526;-74
2023/06/09 03:16:58;;;;;;;11.10;5.38;;;;;;;;;;5088396;28;20047;-76
2023/06/09 03:19:29;;;;;;;9.70;5.30;;;;;;;;;;5087922;28;20047;-76
2023/06/09 03:22:03;;;;;;;9.70;5.15;;;;;;;;;;5088255;28;20063;-75
2023/06/09 03:24:36;;;;;;;9.63;5.55;;;;;;;;;;5088436;28;20441;-76
2023/06/09 03:27:08;;;;;;;9.75;5.68;;;;;;;;;;5106977;28;20387;-74
2023/06/09 03:29:40;;;;;;;6.60;4.72;;;;;;;;;;5087482;28;20051;-76
2023/06/09 03:32:12;;;;;;;17.13;5.68;;;;;;;;;;5087843;28;20062;-75
2023/06/09 03:34:42;;;;;;;11.82;6.30;;;;;;;;;;5087207;28;20052;-75
2023/06/09 03:37:14;;;;;;;8.43;5.40;;;;;;;;;;5105251;28;20051;-76
2023/06/09 03:39:47;;;;;;;8.30;4.65;;;;;;;;;;5087469;28;20055;-75
2023/06/09 03:42:20;;;;;;;11.30;5.53;;;;;;;;;;5087138;28;20084;-75
2023/06/09 03:44:57;;;;;;;9.13;5.18;;;;;;;;;;5106658;28;20498;-76
2023/06/09 03:47:30;;;;;;;8.27;5.18;;;;;;;;;;5087225;28;20448;-75
2023/06/09 03:50:03;;;;;;;10.43;5.32;;;;;;;;;;5087816;28;20051;-75
2023/06/09 03:52:34;;;;;;;9.82;5.65;;;;;;;;;;5087401;28;20055;-75
2023/06/09 03:55:09;;;;;;;6.68;4.80;;;;;;;;;;5087779;28;20059;-76
2023/06/09 03:57:41;;;;;;;10.27;4.97;;;;;;;;;;5087714;28;20525;-75
2023/06/09 04:00:15;;;;;;;9.95;5.30;;;;;;;;;;5087813;28;20044;-75
2023/06/09 04:02:45;;;;;;;9.05;5.07;;;;;;;;;;5110322;28;20051;-75
2023/06/09 04:05:18;;;;;;;6.30;4.50;;;;;;;;;;5087639;28;20498;-75
2023/06/09 04:07:49;;;;;;;11.75;5.57;;;;;;;;;;5086998;28;20055;-75
2023/06/09 04:10:21;;;;;;;9.95;5.60;;;;;;;;;;5106638;28;20747;-75
2023/06/09 04:12:51;;;;;;;11.32;5.90;;;;;;;;;;5086729;28;20055;-75
2023/06/09 04:15:21;;;;;;;8.60;5.03;;;;;;;;;;5087422;28;20062;-75
2023/06/09 04:17:54;;;;;;;7.55;5.28;;;;;;;;;;5087298;28;20054;-76
2023/06/09 04:20:31;;;;;;;9.20;5.00;;;;;;;;;;5086675;28;20051;-75
2023/06/09 04:23:01;;;;;;;8.52;5.22;;;;;;;;;;5086516;28;20058;-75
2023/06/09 04:25:35;;;;;;;9.38;5.03;;;;;;;;;;5105805;28;20047;-75
2023/06/09 04:28:10;;;;;;;8.50;5.10;;;;;;;;;;5087102;28;20052;-76
2023/06/09 04:30:43;;;;;;;14.75;5.38;;;;;;;;;;5087353;28;21155;-76
2023/06/09 04:33:18;;;;;;;9.13;5.32;;;;;;;;;;5086749;28;20047;-74
2023/06/09 04:35:54;;;;;;;12.02;5.18;;;;;;;;;;5086315;28;20047;-75
2023/06/09 04:38:27;;;;;;;10.13;5.32;;;;;;;;;;5087094;28;20048;-74
2023/06/09 04:41:01;;;;;;;7.18;5.20;;;;;;;;;;5086666;28;20055;-75
2023/06/09 04:43:36;;;;;;;7.22;5.07;;;;;;;;;;5086120;28;20063;-76
2023/06/09 04:46:12;;;;;;;8.52;4.97;;;;;;;;;;5086783;28;20421;-75
2023/06/09 04:48:44;;;;;;;8.85;5.47;;;;;;;;;;5105402;28;20054;-75
2023/06/09 04:51:16;;;;;;;7.63;4.88;;;;;;;;;;5086941;28;20052;-76
2023/06/09 04:53:53;;;;;;;7.97;4.50;;;;;;;;;;5104656;28;20059;-75
2023/06/09 04:56:26;;;;;;;6.65;4.15;;;;;;;;;;5086494;28;20062;-75
2023/06/09 04:58:57;;;;;;;9.73;5.18;;;;;;;;;;5105525;28;20050;-75
2023/06/09 05:01:29;;;;;;;8.05;4.80;;;;;;;;;;5087175;28;20051;-75
2023/06/09 05:04:00;;;;;;;8.43;4.63;;;;;;;;;;5105622;28;20494;-75
2023/06/09 05:06:31;;;;;;;10.40;4.88;;;;;;;;;;5086653;28;20051;-75
2023/06/09 05:09:04;;;;;;;8.18;4.85;;;;;;;;;;5086947;28;20079;-75
2023/06/09 05:11:35;;;;;;;11.07;4.82;;;;;;;;;;5086894;28;20059;-75
2023/06/09 05:14:06;;;;;;;5.97;4.50;;;;;;;;;;5105095;28;20414;-75
2023/06/09 05:16:38;;;;;;;9.65;5.38;;;;;;;;;;5086188;28;20528;-75
2023/06/09 05:19:09;;;;;;;6.68;4.70;;;;;;;;;;5105392;28;20393;-75
2023/06/09 05:21:40;;;;;;;10.88;5.50;;;;;;;;;;5086739;28;20048;-75
2023/06/09 05:24:12;;;;;;;9.10;5.25;;;;;;;;;;5105606;28;20391;-75
2023/06/09 05:26:43;;;;;;;8.27;4.53;;;;;;;;;;5085980;28;20051;-75
2023/06/09 05:29:13;;;;;;;8.98;5.53;;;;;;;;;;5085638;28;20075;-75
2023/06/09 05:31:45;;;;;;;9.05;4.88;;;;;;;;;;5104591;28;20043;-75
2023/06/09 05:34:15;;;;;;;13.75;5.90;;;;;;;;;;5085655;28;20498;-74
2023/06/09 05:36:46;;;;;;;9.57;5.30;;;;;;;;;;5086831;28;20047;-74
2023/06/09 05:39:16;;;;;;;10.77;5.10;;;;;;;;;;5086528;28;20047;-74
2023/06/09 05:41:47;;;;;;;11.60;6.03;;;;;;;;;;5104897;28;20414;-75
2023/06/09 05:44:18;;;;;;;11.32;5.10;;;;;;;;;;5105297;28;20418;-75
2023/06/09 05:46:48;;;;;;;10.20;6.03;;;;;;;;;;5104675;28;20046;-75
2023/06/09 05:49:18;;;;;;;9.85;5.80;;;;;;;;;;5105105;28;20058;-75
2023/06/09 05:51:49;;;;;;;9.52;5.53;;;;;;;;;;5104950;28;20513;-74
2023/06/09 05:54:20;;;;;;;9.63;5.28;;;;;;;;;;5104843;28;20526;-75
2023/06/09 05:56:53;;;;;;;8.75;5.25;;;;;;;;;;5105257;28;20066;-75
2023/06/09 05:59:24;;;;;;;7.70;5.30;;;;;;;;;;5089278;28;20062;-75
2023/06/09 06:01:54;;;;;;;9.50;5.13;;;;;;;;;;5108700;28;20066;-74
2023/06/09 06:04:25;;;;;;;10.73;6.28;;;;;;;;;;5108353;28;20051;-75
2023/06/09 06:06:58;;;;;;;10.60;5.40;;;;;;;;;;5108546;28;20043;-74
2023/06/09 06:09:29;;;;;;;10.80;6.25;;;;;;;;;;5108360;28;20044;-75
2023/06/09 06:11:58;;;;;;;9.52;5.60;;;;;;;;;;5108516;28;20048;-75
2023/06/09 06:14:30;;;;;;;8.15;6.07;;;;;;;;;;5107676;28;20048;-74
2023/06/09 06:17:01;;;;;;;13.27;5.63;;;;;;;;;;5107986;28;20043;-75
2023/06/09 06:19:31;;;;;;;9.55;5.53;;;;;;;;;;5108288;28;20051;-75
2023/06/09 06:22:01;;;;;;;8.85;5.28;;;;;;;;;;5108071;28;20389;-74
2023/06/09 06:24:32;;;;;;;6.95;4.90;;;;;;;;;;5108409;28;20861;-75
2023/06/09 06:27:11;;;;;;;7.13;4.57;;;;;;;;;;5107275;28;20063;-75
2023/06/09 06:29:41;;;;;;;10.90;4.68;;;;;;;;;;5107986;28;20062;-74
2023/06/09 06:32:11;;;;;;;8.75;4.78;;;;;;;;;;5107501;28;20047;-75
2023/06/09 06:34:41;;;;;;;8.80;5.32;;;;;;;;;;5107771;28;20060;-74
2023/06/09 06:37:12;;;;;;;12.35;5.50;;;;;;;;;;5107646;28;20813;-74
2023/06/09 06:39:42;;;;;;;8.85;5.35;;;;;;;;;;5090223;28;20062;-75
2023/06/09 06:42:14;;;;;;;9.38;5.25;;;;;;;;;;5107633;28;20489;-75
2023/06/09 06:44:59;;;;;;;10.57;4.63;;;;;;;;;;5075016;28;20051;-74
2023/06/09 06:47:30;;;;;;;8.13;4.57;;;;;;;;;;5072800;28;20039;-75
2023/06/09 06:50:02;;;;;;;7.75;4.72;;;;;;;;;;5106397;28;20134;-75
2023/06/09 06:52:34;;;;;;;10.38;5.03;;;;;;;;;;5107320;28;20417;-75
2023/06/09 06:55:07;;;;;;;10.13;5.35;;;;;;;;;;5107252;28;20039;-74
2023/06/09 06:57:38;;;;;;;7.07;4.72;;;;;;;;;;5107660;28;20044;-75
2023/06/09 07:00:16;;;;;;;9.23;5.03;;;;;;;;;;5107843;28;20442;-75
2023/06/09 07:02:47;;;;;;;7.78;4.35;;;;;;;;;;5088168;28;20067;-75
2023/06/09 07:05:17;;;;;;;8.20;4.63;;;;;;;;;;5107114;28;20043;-75
2023/06/09 07:07:47;;;;;;;7.20;4.55;;;;;;;;;;5106785;28;20047;-75
2023/06/09 07:10:19;;;;;;;9.00;4.47;;;;;;;;;;5106157;28;20048;-75
2023/06/09 07:12:50;;;;;;;9.30;4.82;;;;;;;;;;5107318;28;20047;-74
2023/06/09 07:15:22;;;;;;;6.93;4.75;;;;;;;;;;5107130;28;20054;-75
2023/06/09 07:17:52;;;;;;;11.25;4.82;;;;;;;;;;5106799;28;20043;-75
2023/06/09 07:20:23;;;;;;;8.13;4.10;;;;;;;;;;5107251;28;20048;-75
2023/06/09 07:22:53;;;;;;;9.02;4.40;;;;;;;;;;5107184;28;20039;-75
2023/06/09 07:25:25;;;;;;;8.15;4.18;;;;;;;;;;5106760;28;20055;-75
2023/06/09 07:27:56;;;;;;;5.82;3.97;;;;;;;;;;5087626;28;20059;-75
2023/06/09 07:30:26;;;;;;;6.47;3.88;;;;;;;;;;5106822;28;20043;-74
2023/06/09 07:32:57;;;;;;;7.70;3.92;;;;;;;;;;5106808;28;20050;-75
2023/06/09 07:35:29;;;;;;;6.03;3.72;;;;;;;;;;5106323;28;20075;-75
2023/06/09 07:38:01;;;;;;;5.57;4.00;;;;;;;;;;5106619;28;20043;-75
2023/06/09 07:40:31;;;;;;;5.60;3.92;;;;;;;;;;5106409;28;20039;-75
2023/06/09 07:43:03;;;;;;;6.25;4.50;;;;;;;;;;5106734;28;20055;-74
2023/06/09 07:45:34;;;;;;;9.55;4.38;;;;;;;;;;5107311;28;20051;-75
2023/06/09 07:48:06;;;;;;;6.07;4.35;;;;;;;;;;5106889;28;20536;-75
2023/06/09 07:50:36;;;;;;;7.57;4.47;;;;;;;;;;5107195;28;20040;-75
2023/06/09 07:53:27;;;;;;;7.70;4.20;;;;;;;;;;5106109;28;20062;-75
2023/06/09 07:55:59;;;;;;;6.10;3.95;;;;;;;;;;5087068;28;20537;-75
2023/06/09 07:58:30;;;;;;;8.48;4.75;;;;;;;;;;5105772;28;20048;-75
2023/06/09 08:01:00;;;;;;;7.20;4.43;;;;;;;;;;5104953;28;20052;-75
2023/06/09 08:03:35;;;;;;;9.75;4.22;;;;;;;;;;5105960;28;20043;-75
2023/06/09 08:06:08;;;;;;;6.50;3.75;;;;;;;;;;5106543;28;20055;-75
2023/06/09 08:08:39;;;;;;;5.65;4.07;;;;;;;;;;5087624;28;20403;-75
2023/06/09 08:11:08;;;;;;;;;;;;;;;;;;5106568;28;20044;-75
2023/06/09 08:13:39;;;;;;;6.28;3.67;;;;;;;;;;5106079;28;19931;-75
2023/06/09 08:16:10;;;;;;;6.43;3.92;;;;;;;;;;5105367;28;20052;-75
2023/06/09 08:18:41;;;;;;;6.47;3.70;;;;;;;;;;5106166;28;20044;-75
2023/06/09 08:21:11;;;;;;;7.30;3.75;;;;;;;;;;5106175;28;20050;-75
2023/06/09 08:23:44;;;;;;;8.73;4.15;;;;;;;;;;5106290;28;20764;-75
2023/06/09 08:26:16;;;;;;;9.07;4.28;;;;;;;;;;5105896;28;20070;-75
2023/06/09 08:28:47;;;;;;;11.30;4.70;;;;;;;;;;5105331;28;20043;-75
2023/06/09 08:31:18;;;;;;;6.30;4.03;;;;;;;;;;5106011;28;20052;-75
2023/06/09 08:33:48;;;;;;;5.63;3.63;;;;;;;;;;5106108;28;20517;-75
2023/06/09 08:36:19;;;;;;;4.90;3.60;;;;;;;;;;5105656;28;20044;-75
2023/06/09 08:38:50;;;;;;;6.40;3.95;;;;;;;;;;5105915;28;20043;-74
2023/06/09 08:41:24;;;;;;;6.28;3.88;;;;;;;;;;5105627;28;20044;-77
2023/06/09 08:43:55;;;;;;;7.35;3.72;;;;;;;;;;5105842;28;20043;-74
2023/06/09 08:46:32;;;;;;;7.10;3.35;;;;;;;;;;5105747;28;20059;-75
2023/06/09 08:49:03;;;;;;;6.03;3.92;;;;;;;;;;5105396;28;20044;-75
2023/06/09 08:51:37;;;;;;;6.18;3.53;;;;;;;;;;5104484;28;20054;-74
2023/06/09 08:54:13;;;;;;;8.05;4.30;;;;;;;;;;5105484;28;20047;-74
2023/06/09 08:56:44;;;;;;;5.43;3.50;;;;;;;;;;5105133;28;20044;-74
2023/06/09 08:59:17;;;;;;;6.53;3.83;;;;;;;;;;5106912;28;20039;-75
2023/06/09 09:01:49;;;;;;;10.10;4.50;;;;;;;;;;5105291;28;20051;-75
2023/06/09 09:04:20;;;;;;;6.60;3.97;;;;;;;;;;5105421;28;20078;-78
2023/06/09 09:06:52;;;;;;;6.68;4.10;;;;;;;;;;5105137;28;20046;-75
2023/06/09 09:09:23;;;;;;;6.43;4.05;;;;;;;;;;5105143;28;20055;-75
2023/06/09 09:11:59;;;;;;;7.90;3.72;;;;;;;;;;5105117;28;20056;-75
2023/06/09 09:14:31;;;;;;;10.25;4.28;;;;;;;;;;5105119;28;20079;-75
2023/06/09 09:17:08;;;;;;;12.52;4.13;;;;;;;;;;5105718;28;20047;-76
2023/06/09 09:19:53;;;;;;;8.68;4.05;;;;;;;;;;5105421;28;20051;-79
2023/06/09 09:22:25;;;;;;;8.27;4.13;;;;;;;;;;5105183;28;20051;-76
2023/06/09 09:24:55;;;;;;;6.72;4.10;;;;;;;;;;5104817;28;20048;-76
2023/06/09 09:27:27;;;;;;;8.55;4.00;;;;;;;;;;5105020;28;20414;-76
2023/06/09 09:29:58;;;;;;;7.88;4.05;;;;;;;;;;5105136;28;20062;-75
2023/06/09 09:32:29;;;;;;;8.63;3.90;;;;;;;;;;5105309;28;20040;-76
2023/06/09 09:34:59;;;;;;;6.35;4.13;;;;;;;;;;5089093;28;20056;-76
2023/06/09 09:37:32;;;;;;;8.25;4.32;;;;;;;;;;5108916;28;20051;-75
2023/06/09 09:40:04;;;;;;;9.80;4.43;;;;;;;;;;5089919;28;20054;-75
2023/06/09 09:42:37;;;;;;;12.80;4.18;;;;;;;;;;5108882;28;20379;-75
2023/06/09 09:45:11;;;;;;;8.52;3.95;;;;;;;;;;5108783;28;20050;-75
2023/06/09 09:47:42;;;;;;;6.03;4.10;;;;;;;;;;5109122;28;20066;-76
2023/06/09 09:50:23;;;;;;;7.03;4.40;;;;;;;;;;5109476;28;20482;-75
2023/06/09 09:52:54;;;;;;;5.65;3.67;;;;;;;;;;5108919;28;20494;-76
2023/06/09 09:55:25;;;;;;;6.68;4.13;;;;;;;;;;5091016;28;20046;-75
2023/06/09 09:57:58;;;;;;;10.00;3.75;;;;;;;;;;5108907;28;20462;-80
2023/06/09 10:00:30;;;;;;;5.82;3.97;;;;;;;;;;5089058;28;20078;-76
2023/06/09 10:03:07;;;;;;;8.35;3.72;;;;;;;;;;5108652;28;20047;-76
2023/06/09 10:05:39;;;;;;;6.38;4.28;;;;;;;;;;5108482;28;20044;-76
2023/06/09 10:08:12;;;;;;;8.57;4.03;;;;;;;;;;5108835;28;20051;-76
2023/06/09 10:10:46;;;;;;;9.18;4.70;;;;;;;;;;5088546;28;20039;-80
2023/06/09 10:13:19;;;;;;;8.52;4.25;;;;;;;;;;5108351;28;20051;-76
2023/06/09 10:15:52;;;;;;;9.95;4.30;;;;;;;;;;5108136;28;20055;-75
2023/06/09 10:18:23;;;;;;;9.82;4.53;;;;;;;;;;5108731;28;20040;-78
2023/06/09 10:20:56;;;;;;;12.43;4.40;;;;;;;;;;5108390;28;20054;-84
2023/06/09 10:23:27;;;;;;;15.60;5.07;;;;;;;;;;5108391;28;20040;-76
2023/06/09 10:25:57;;;;;;;14.95;4.50;;;;;;;;;;5108485;28;20528;-77
2023/06/09 10:28:27;;;;;;;7.32;4.38;;;;;;;;;;5107975;28;20056;-76
2023/06/09 10:31:00;;;;;;;10.98;4.28;;;;;;;;;;5107887;28;20059;-75
2023/06/09 10:33:36;;;;;;;10.07;3.97;;;;;;;;;;5107815;28;20058;-75
2023/06/09 10:36:07;;;;;;;;;;;;;;;;;;5108294;28;20075;-76
2023/06/09 10:38:43;;;;;;;16.00;4.15;;;;;;;;;;5090108;28;19947;-76
2023/06/09 10:41:15;;;;;;;19.40;4.90;;;;;;;;;;5108046;28;20502;-77
2023/06/09 10:44:04;;;;;;;8.93;4.55;;;;;;;;;;5108180;28;20047;-76
2023/06/09 10:46:42;;;;;;;24.00;5.13;;;;;;;;;;5108054;28;20043;-75
2023/06/09 10:49:34;;;;;;;11.98;4.10;;;;;;;;;;5107646;28;20532;-75
2023/06/09 10:52:07;;;;;;;16.38;4.15;;;;;;;;;;5107786;28;20047;-77
2023/06/09 10:54:38;;;;;;;13.88;4.30;;;;;;;;;;5108075;28;20059;-75
2023/06/09 10:57:36;;;;;;;12.98;4.07;;;;;;;;;;5107383;28;20051;-77
2023/06/09 11:00:11;;;;;;;23.38;4.50;;;;;;;;;;5100276;28;20437;-75
2023/06/09 11:02:43;;;;;;;9.80;3.75;;;;;;;;;;5105356;28;20062;-82
2023/06/09 11:05:15;;;;;;;20.55;4.55;;;;;;;;;;5107236;28;20043;-76
2023/06/09 11:07:51;;;;;;;8.80;4.35;;;;;;;;;;5106632;28;20048;-76
2023/06/09 11:10:25;;;;;;;10.23;3.63;;;;;;;;;;5089100;28;20047;-76
2023/06/09 11:12:57;;;;;;;13.07;4.25;;;;;;;;;;5107121;28;20058;-77
2023/06/09 11:15:57;;;;;;;9.20;3.78;;;;;;;;;;5106952;28;20579;-76
2023/06/09 11:18:28;;;;;;;6.63;3.50;;;;;;;;;;5106772;28;20422;-75
2023/06/09 11:21:28;;;;;;;6.15;3.55;;;;;;;;;;5107186;28;20502;-75
2023/06/09 11:24:06;;;;;;;6.53;3.13;;;;;;;;;;5069682;28;20059;-76
2023/06/09 11:26:38;;;;;;;11.70;3.25;;;;;;;;;;5105792;28;20044;-75
2023/06/09 11:29:18;;;;;;;5.93;3.25;;;;;;;;;;5088834;28;20059;-75
2023/06/09 11:31:50;;;;;;;12.20;3.28;;;;;;;;;;5106581;28;20051;-75
2023/06/09 11:34:56;;;;;;;8.85;3.53;;;;;;;;;;5106662;28;20054;-75
2023/06/09 11:37:29;;;;;;;7.47;3.30;;;;;;;;;;5106589;28;20047;-75
2023/06/09 11:40:01;;;;;;;12.27;3.83;;;;;;;;;;5106808;28;20047;-77
2023/06/09 11:42:35;;;;;;;6.22;3.55;;;;;;;;;;5106396;28;20043;-75
2023/06/09 11:45:07;;;;;;;7.82;3.65;;;;;;;;;;5105989;28;20498;-76
2023/06/09 11:47:42;;;;;;;17.17;8.95;;;;;;;;;;5105949;28;20058;-75
2023/06/09 11:50:15;;;;;;;15.85;6.85;;;;;;;;;;5106732;28;20054;-76
2023/06/09 11:52:46;;;;;;;11.35;4.95;;;;;;;;;;5106458;28;20494;-78
2023/06/09 11:55:16;;;;;;;8.50;4.80;;;;;;;;;;5106021;28;20044;-74
2023/06/09 11:57:47;;;;;;;5.18;2.75;;;;;;;;;;5106193;28;20048;-74
2023/06/09 12:00:18;;;;;;;10.13;3.03;;;;;;;;;;5088831;28;20537;-79
2023/06/09 12:02:53;;;;;;;3.92;2.65;;;;;;;;;;5106719;28;20055;-75
2023/06/09 12:05:24;;;;;;;8.55;3.15;;;;;;;;;;5106181;28;20051;-74
2023/06/09 12:07:55;;;;;;;7.07;2.83;;;;;;;;;;5106110;28;20051;-76
2023/06/09 12:10:30;;;;;;;5.28;2.40;;;;;;;;;;5105557;28;20525;-79
2023/06/09 12:13:01;;;;;;;9.82;3.45;;;;;;;;;;5105921;28;20504;-76
2023/06/09 12:15:31;;;;;;;7.15;3.22;;;;;;;;;;5105834;28;20062;-76
2023/06/09 12:18:03;;;;;;;5.70;3.10;;;;;;;;;;5106026;28;20051;-77
2023/06/09 12:20:37;;;;;;;4.53;2.85;;;;;;;;;;5104788;28;20506;-80
2023/06/09 12:23:13;;;;;;;;;;;;;;;;;;5106496;28;20117;-77
2023/06/09 12:25:46;;;;;;;6.40;2.45;;;;;;;;;;5086880;28;19927;-77
2023/06/09 12:28:24;;;;;;;8.13;2.40;;;;;;;;;;5105113;28;20052;-77
2023/06/09 12:31:08;;;;;;;8.70;3.00;;;;;;;;;;5105355;28;20055;-76
2023/06/09 12:33:49;;;;;;;6.53;2.78;;;;;;;;;;5106080;28;20040;-76
2023/06/09 12:36:19;;;;;;;7.57;2.22;;;;;;;;;;5106038;28;20043;-76
2023/06/09 12:38:50;;;;;;;7.82;2.22;;;;;;;;;;5106259;28;20679;-76
2023/06/09 12:41:22;;;;;;;9.23;2.50;;;;;;;;;;5105629;28;20051;-77
2023/06/09 12:43:56;;;;;;;16.98;3.60;;;;;;;;;;5106120;28;20067;-77
2023/06/09 12:46:37;;;;;;;15.90;4.90;;;;;;;;;;5106888;28;20043;-75
2023/06/09 12:49:10;;;;;;;6.22;2.55;;;;;;;;;;5106124;28;20043;-74
2023/06/09 12:51:43;;;;;;;7.05;2.20;;;;;;;;;;5106783;28;20931;-76
2023/06/09 12:54:14;;;;;;;12.23;2.85;;;;;;;;;;5107794;28;20039;-76
2023/06/09 12:56:46;;;;;;;11.15;2.60;;;;;;;;;;5105431;28;20518;-75
2023/06/09 12:59:16;;;;;;;12.68;3.05;;;;;;;;;;5105570;28;20046;-77
2023/06/09 13:01:47;;;;;;;11.18;2.13;;;;;;;;;;5105339;28;20048;-75
2023/06/09 13:04:18;;;;;;;7.72;2.38;;;;;;;;;;5086401;28;20078;-75
2023/06/09 13:06:50;;;;;;;7.57;2.70;;;;;;;;;;5105220;28;20044;-75
2023/06/09 13:09:20;;;;;;;4.80;2.30;;;;;;;;;;5107937;28;20348;-75
2023/06/09 13:11:51;;;;;;;4.13;2.17;;;;;;;;;;5109539;28;20043;-76
2023/06/09 13:14:22;;;;;;;7.40;2.50;;;;;;;;;;5109698;28;20043;-75
2023/06/09 13:16:58;;;;;;;4.63;2.10;;;;;;;;;;5109434;28;20058;-75
2023/06/09 13:19:30;;;;;;;7.68;2.80;;;;;;;;;;5109763;28;20051;-78
2023/06/09 13:22:01;;;;;;;9.57;2.42;;;;;;;;;;5109255;28;20044;-76
2023/06/09 13:24:32;;;;;;;8.10;3.13;;;;;;;;;;5109401;28;20040;-75
2023/06/09 13:27:03;;;;;;;6.00;2.28;;;;;;;;;;5109843;28;20051;-76
2023/06/09 13:29:34;;;;;;;5.25;2.45;;;;;;;;;;5109099;28;20043;-75
2023/06/09 13:32:05;;;;;;;23.67;11.80;;;;;;;;;;5108669;28;20043;-75
2023/06/09 13:34:37;;;;;;;7.38;2.20;;;;;;;;;;5109178;28;20055;-76
2023/06/09 13:37:07;;;;;;;5.60;2.25;;;;;;;;;;5107533;28;20055;-75
2023/06/09 13:39:37;;;;;;;7.70;2.60;;;;;;;;;;5109220;28;20047;-75
2023/06/09 13:42:07;;;;;;;9.15;2.63;;;;;;;;;;5109367;28;20125;-75
2023/06/09 13:44:39;;;;;;;9.35;2.50;;;;;;;;;;5109301;28;20504;-75
2023/06/09 13:47:11;;;;;;;4.32;2.30;;;;;;;;;;5108863;28;20054;-75
2023/06/09 13:49:43;;;;;;;6.10;2.45;;;;;;;;;;5109340;28;20048;-75
2023/06/09 13:52:14;;;;;;;14.35;3.00;;;;;;;;;;5108653;28;20047;-75
2023/06/09 13:54:45;;;;;;;6.65;2.35;;;;;;;;;;5109220;28;20047;-75
2023/06/09 13:57:16;;;;;;;17.88;3.25;;;;;;;;;;5108651;28;20113;-76
2023/06/09 13:59:47;;;;;;;6.05;2.38;;;;;;;;;;5108352;28;20058;-76
2023/06/09 14:02:17;;;;;;;5.72;2.35;;;;;;;;;;5108393;28;20387;-76
2023/06/09 14:04:47;;;;;;;9.25;2.25;;;;;;;;;;5108080;28;20139;-75
2023/06/09 14:07:18;;;;;;;6.78;2.70;;;;;;;;;;5108306;28;20066;-74
2023/06/09 14:09:49;;;;;;;6.35;2.30;;;;;;;;;;5108153;28;20075;-76
2023/06/09 14:12:19;;;;;;;8.02;2.17;;;;;;;;;;5108350;28;20525;-76
2023/06/09 14:14:51;;;;;;;6.25;2.00;;;;;;;;;;5108585;28;20047;-75
2023/06/09 14:17:21;;;;;;;5.65;2.00;;;;;;;;;;5108113;28;20498;-78
2023/06/09 14:19:53;;;;;;;8.60;2.30;;;;;;;;;;5107369;28;20035;-75
2023/06/09 14:22:24;;;;;;;8.32;2.50;;;;;;;;;;5108205;28;20505;-78
2023/06/09 14:24:54;;;;;;;4.95;1.80;;;;;;;;;;5107745;28;20058;-79
2023/06/09 14:27:24;;;;;;;8.30;1.67;;;;;;;;;;5108745;28;20524;-77
2023/06/09 14:29:56;;;;;;;7.88;2.00;;;;;;;;;;5108408;28;20043;-75
2023/06/09 14:32:27;;;;;;;5.25;2.22;;;;;;;;;;5107910;28;20039;-75
2023/06/09 14:34:59;;;;;;;6.90;2.00;;;;;;;;;;5108055;28;20383;-75
2023/06/09 14:37:31;;;;;;;11.32;2.83;;;;;;;;;;5107445;28;20047;-81
2023/06/09 14:40:04;;;;;;;9.77;1.77;;;;;;;;;;5108517;28;20073;-78
2023/06/09 14:42:34;;;;;;;6.25;1.98;;;;;;;;;;5108061;28;20039;-79
2023/06/09 14:45:04;;;;;;;10.25;2.60;;;;;;;;;;5107954;28;20047;-75
2023/06/09 14:47:35;;;;;;;3.97;1.95;;;;;;;;;;5090221;28;20052;-77
2023/06/09 14:50:07;;;;;;;4.07;2.00;;;;;;;;;;5107181;28;20052;-75
2023/06/09 14:52:38;;;;;;;6.07;2.13;;;;;;;;;;5107265;28;20498;-82
2023/06/09 14:55:09;;;;;;;6.22;2.05;;;;;;;;;;5107420;28;20046;-75
2023/06/09 14:57:39;;;;;;;7.45;2.10;;;;;;;;;;5088225;28;20055;-77
2023/06/09 15:00:10;;;;;;;9.02;2.08;;;;;;;;;;5107903;28;20048;-75
2023/06/09 15:02:43;;;;;;;3.50;1.77;;;;;;;;;;5108333;28;20040;-77
2023/06/09 15:05:14;;;;;;;4.95;1.90;;;;;;;;;;5108230;28;20055;-78
2023/06/09 15:07:44;;;;;;;3.10;1.55;;;;;;;;;;5107532;28;20043;-75
2023/06/09 15:10:14;;;;;;;5.35;2.00;;;;;;;;;;5106976;28;20044;-74
2023/06/09 15:12:45;;;;;;;6.00;1.67;;;;;;;;;;5089882;28;20052;-78
2023/06/09 15:15:15;;;;;;;3.63;1.58;;;;;;;;;;5106525;28;20051;-75